Time;durP1;ratioP1;P1;durP2;ratioP2;P2;SDS_P1;SDS_P2;PMS_P1;PMS_P2;Temp;Humidity;BMP_temperature;BMP_pressure;BME280_temperature;BME280_humidity;BME280_pressure;Samples;Min_cycle;Max_cycle;Signal;HPM_P1;HPM_P2
2024/02/22 00:00:47;;;;;;;5.90;2.53;;;;;;;;;;4881242;29;20071;-89
2024/02/22 00:03:18;;;;;;;7.32;2.42;;;;;;;;;;4896410;29;20049;-90
2024/02/22 00:05:48;;;;;;;5.65;1.98;;;;;;;;;;4897338;29;20052;-89
2024/02/22 00:08:19;;;;;;;6.55;2.03;;;;;;;;;;4894910;29;20076;-90
2024/02/22 00:10:51;;;;;;;4.38;2.03;;;;;;;;;;4897294;29;20049;-89
2024/02/22 00:13:23;;;;;;;6.20;2.22;;;;;;;;;;4903463;29;20048;-89
2024/02/22 00:15:55;;;;;;;7.25;2.53;;;;;;;;;;4898135;29;20048;-90
2024/02/22 00:18:26;;;;;;;18.90;2.63;;;;;;;;;;4886770;29;20056;-89
2024/02/22 00:20:57;;;;;;;11.73;2.60;;;;;;;;;;4888746;29;20056;-89
2024/02/22 00:26:25;;;;;;;6.90;2.22;;;;;;;;;;4894559;29;20500;-88
2024/02/22 00:28:55;;;;;;;8.65;2.30;;;;;;;;;;4895687;29;20048;-91
2024/02/22 00:31:27;;;;;;;6.05;2.65;;;;;;;;;;4880607;29;20052;-93
2024/02/22 00:33:57;;;;;;;14.52;2.70;;;;;;;;;;4879604;29;20421;-88
2024/02/22 00:36:29;;;;;;;6.93;2.72;;;;;;;;;;4895470;29;20048;-89
2024/02/22 00:38:59;;;;;;;10.10;3.25;;;;;;;;;;4880744;29;20056;-88
2024/02/22 00:41:29;;;;;;;13.50;3.50;;;;;;;;;;4882216;29;20052;-92
2024/02/22 00:44:00;;;;;;;13.15;3.85;;;;;;;;;;4880515;29;20057;-90
2024/02/22 00:46:56;;;;;;;12.05;4.32;;;;;;;;;;4896299;29;20045;-89
2024/02/22 00:50:07;;;;;;;10.55;4.32;;;;;;;;;;4775695;30;20059;-88
2024/02/22 00:52:37;;;;;;;;;;;;;;;;;;4784838;30;20067;-89
2024/02/22 00:55:08;;;;;;;13.30;3.95;;;;;;;;;;4781810;30;19925;-89
2024/02/22 00:57:39;;;;;;;11.25;3.08;;;;;;;;;;4769181;30;20066;-89
2024/02/22 01:00:11;;;;;;;9.73;3.50;;;;;;;;;;4784020;29;20085;-88
2024/02/22 01:02:41;;;;;;;7.57;2.80;;;;;;;;;;4784738;29;20063;-89
2024/02/22 01:05:13;;;;;;;10.15;2.80;;;;;;;;;;4784466;29;20535;-89
2024/02/22 01:07:46;;;;;;;7.63;2.33;;;;;;;;;;4783676;30;20189;-89
2024/02/22 01:10:17;;;;;;;10.05;2.88;;;;;;;;;;4784628;29;20185;-93
2024/02/22 01:12:48;;;;;;;10.38;2.85;;;;;;;;;;4786652;29;20055;-90
2024/02/22 01:15:19;;;;;;;7.25;2.72;;;;;;;;;;4785174;29;20066;-94
2024/02/22 01:17:50;;;;;;;10.98;3.10;;;;;;;;;;4785560;29;20169;-92
2024/02/22 01:20:22;;;;;;;8.65;3.10;;;;;;;;;;4786074;29;20067;-90
2024/02/22 01:22:53;;;;;;;8.60;2.95;;;;;;;;;;4801121;29;20051;-92
2024/02/22 01:25:24;;;;;;;13.50;3.72;;;;;;;;;;4786586;29;20059;-90
2024/02/22 01:27:55;;;;;;;8.43;3.10;;;;;;;;;;4786186;29;20062;-90
2024/02/22 01:30:26;;;;;;;9.00;3.60;;;;;;;;;;4787609;29;20063;-90
2024/02/22 01:32:57;;;;;;;12.73;3.17;;;;;;;;;;4788974;30;20071;-92
2024/02/22 01:35:27;;;;;;;10.52;3.58;;;;;;;;;;4790901;30;20063;-92
2024/02/22 01:37:58;;;;;;;13.48;3.30;;;;;;;;;;4777018;29;20512;-91
2024/02/22 01:40:28;;;;;;;17.25;4.07;;;;;;;;;;4772570;30;20145;-91
2024/02/22 01:42:58;;;;;;;9.02;3.42;;;;;;;;;;4771704;30;20066;-92
2024/02/22 01:45:28;;;;;;;16.60;3.05;;;;;;;;;;4771450;30;20059;-91
2024/02/22 01:48:00;;;;;;;8.50;3.20;;;;;;;;;;4841431;29;20453;-91
2024/02/22 01:50:32;;;;;;;11.90;3.33;;;;;;;;;;4861385;29;20056;-91
2024/02/22 01:53:04;;;;;;;9.43;3.45;;;;;;;;;;4874090;29;20052;-89
2024/02/22 01:55:37;;;;;;;12.15;3.58;;;;;;;;;;4887562;29;20060;-90
2024/02/22 01:58:07;;;;;;;9.00;3.40;;;;;;;;;;4889541;29;20530;-90
2024/02/22 02:00:38;;;;;;;10.52;3.13;;;;;;;;;;4903737;29;20477;-92
2024/02/22 02:03:09;;;;;;;;;;;;;;;;;;4888811;29;20052;-90
2024/02/22 02:05:40;;;;;;;7.82;2.58;;;;;;;;;;4905878;29;19923;-90
2024/02/22 02:08:14;;;;;;;6.03;2.33;;;;;;;;;;4883767;29;20064;-90
2024/02/22 02:10:47;;;;;;;9.52;3.08;;;;;;;;;;4901507;29;20049;-93
2024/02/22 02:13:18;;;;;;;10.82;3.05;;;;;;;;;;4883625;29;20055;-90
2024/02/22 02:15:48;;;;;;;14.18;3.10;;;;;;;;;;4884126;29;20059;-92
2024/02/22 02:18:19;;;;;;;6.03;2.85;;;;;;;;;;4883566;29;20079;-89
2024/02/22 02:21:18;;;;;;;10.68;3.10;;;;;;;;;;4898829;29;20072;-92
2024/02/22 02:24:21;;;;;;;8.43;3.25;;;;;;;;;;4878661;29;20061;-90
2024/02/22 02:26:53;;;;;;;8.02;3.15;;;;;;;;;;4898474;29;20055;-89
2024/02/22 02:29:24;;;;;;;10.30;2.60;;;;;;;;;;4898316;29;20049;-89
2024/02/22 02:31:57;;;;;;;10.00;3.42;;;;;;;;;;4884033;29;20063;-86
2024/02/22 02:34:28;;;;;;;13.10;3.35;;;;;;;;;;4899729;29;20045;-87
2024/02/22 02:36:58;;;;;;;7.75;3.25;;;;;;;;;;4882144;29;20655;-85
2024/02/22 02:39:29;;;;;;;7.63;3.50;;;;;;;;;;4882423;29;20075;-87
2024/02/22 02:41:59;;;;;;;8.18;3.10;;;;;;;;;;4898344;29;20052;-86
2024/02/22 02:44:30;;;;;;;11.20;3.13;;;;;;;;;;4898626;29;20051;-87
2024/02/22 02:47:02;;;;;;;9.45;2.92;;;;;;;;;;4897995;29;20057;-87
2024/02/22 02:49:34;;;;;;;5.82;2.85;;;;;;;;;;4899596;29;20064;-86
2024/02/22 02:52:05;;;;;;;6.60;3.17;;;;;;;;;;4898504;29;20049;-86
2024/02/22 02:54:36;;;;;;;10.43;3.35;;;;;;;;;;4899477;29;20115;-86
2024/02/22 02:57:06;;;;;;;9.18;3.15;;;;;;;;;;4897655;29;20059;-86
2024/02/22 02:59:36;;;;;;;10.63;3.10;;;;;;;;;;4899348;29;20059;-86
2024/02/22 03:02:07;;;;;;;9.25;3.03;;;;;;;;;;4899583;29;20061;-86
2024/02/22 03:04:37;;;;;;;9.75;3.35;;;;;;;;;;4866796;29;20052;-86
2024/02/22 03:07:08;;;;;;;6.82;2.83;;;;;;;;;;4899517;29;20048;-88
2024/02/22 03:09:40;;;;;;;9.50;3.13;;;;;;;;;;4881853;29;20061;-86
2024/02/22 03:12:11;;;;;;;9.57;3.38;;;;;;;;;;4884308;29;20061;-86
2024/02/22 03:14:41;;;;;;;10.20;2.95;;;;;;;;;;4893420;29;20419;-87
2024/02/22 03:17:36;;;;;;;15.43;2.95;;;;;;;;;;4901358;29;20484;-86
2024/02/22 03:20:10;;;;;;;11.52;3.08;;;;;;;;;;4882478;29;20056;-88
2024/02/22 03:22:41;;;;;;;9.18;3.03;;;;;;;;;;4882001;29;20400;-88
2024/02/22 03:25:12;;;;;;;6.95;2.85;;;;;;;;;;4881788;29;20053;-89
2024/02/22 03:27:44;;;;;;;7.45;2.70;;;;;;;;;;4881442;29;20056;-89
2024/02/22 03:30:16;;;;;;;;;;;;;;;;;;4882916;29;20056;-87
2024/02/22 03:32:46;;;;;;;7.40;2.83;;;;;;;;;;4881536;29;19931;-87
2024/02/22 03:35:18;;;;;;;6.35;2.78;;;;;;;;;;4881200;29;20089;-88
2024/02/22 03:37:49;;;;;;;7.40;2.70;;;;;;;;;;4896949;29;20064;-88
2024/02/22 03:40:19;;;;;;;10.77;2.88;;;;;;;;;;4897471;29;20048;-88
2024/02/22 03:42:50;;;;;;;10.63;2.80;;;;;;;;;;4881441;29;20507;-87
2024/02/22 03:45:21;;;;;;;9.82;2.97;;;;;;;;;;4897479;29;20055;-87
2024/02/22 03:47:52;;;;;;;12.15;3.00;;;;;;;;;;4897688;29;20044;-88
2024/02/22 03:50:22;;;;;;;10.48;3.08;;;;;;;;;;4898660;29;20048;-90
2024/02/22 03:52:54;;;;;;;10.70;3.30;;;;;;;;;;4881480;29;20064;-88
2024/02/22 03:55:24;;;;;;;10.65;3.42;;;;;;;;;;4881629;29;20057;-88
2024/02/22 03:57:55;;;;;;;20.67;3.95;;;;;;;;;;4881561;29;20052;-88
2024/02/22 04:00:25;;;;;;;9.68;2.88;;;;;;;;;;4896169;29;20068;-88
2024/02/22 04:02:57;;;;;;;6.72;3.17;;;;;;;;;;4898342;29;20048;-87
2024/02/22 04:05:27;;;;;;;9.93;3.03;;;;;;;;;;4896854;29;20048;-88
2024/02/22 04:07:58;;;;;;;8.23;3.13;;;;;;;;;;4897026;29;20056;-88
2024/02/22 04:10:29;;;;;;;11.25;3.05;;;;;;;;;;4896571;29;20057;-88
2024/02/22 04:13:00;;;;;;;9.65;2.72;;;;;;;;;;4896835;29;20059;-88
2024/02/22 04:15:30;;;;;;;11.45;2.97;;;;;;;;;;4896253;29;20059;-88
2024/02/22 04:18:00;;;;;;;9.45;3.13;;;;;;;;;;4897042;29;20052;-87
2024/02/22 04:20:30;;;;;;;10.85;3.17;;;;;;;;;;4880739;29;20461;-87
2024/02/22 04:23:02;;;;;;;8.45;3.03;;;;;;;;;;4896580;29;20053;-87
2024/02/22 04:25:34;;;;;;;10.05;2.92;;;;;;;;;;4896333;29;20049;-87
2024/02/22 04:28:05;;;;;;;9.57;2.83;;;;;;;;;;4898085;29;20052;-86
2024/02/22 04:30:36;;;;;;;8.07;3.13;;;;;;;;;;4896828;29;20056;-86
2024/02/22 04:33:06;;;;;;;8.88;3.03;;;;;;;;;;4880903;29;20059;-86
2024/02/22 04:35:36;;;;;;;10.30;4.13;;;;;;;;;;4895929;29;20053;-86
2024/02/22 04:38:08;;;;;;;15.68;5.50;;;;;;;;;;4896084;29;20484;-86
2024/02/22 04:40:40;;;;;;;23.83;10.90;;;;;;;;;;4896747;29;20440;-86
2024/02/22 04:43:13;;;;;;;17.45;7.82;;;;;;;;;;4897494;29;20052;-87
2024/02/22 04:45:43;;;;;;;17.25;8.05;;;;;;;;;;4897700;29;20040;-87
2024/02/22 04:48:13;;;;;;;14.30;4.80;;;;;;;;;;4896175;29;20064;-87
2024/02/22 04:50:44;;;;;;;12.50;4.72;;;;;;;;;;4895648;29;20064;-87
2024/02/22 04:53:16;;;;;;;15.80;4.65;;;;;;;;;;4896796;29;20059;-86
2024/02/22 04:55:48;;;;;;;10.48;3.92;;;;;;;;;;4895843;29;20049;-85
2024/02/22 04:58:20;;;;;;;11.57;4.78;;;;;;;;;;4896542;29;20049;-86
2024/02/22 05:00:50;;;;;;;12.80;5.32;;;;;;;;;;4896095;29;20067;-85
2024/02/22 05:03:23;;;;;;;14.70;5.72;;;;;;;;;;4897833;29;20052;-85
2024/02/22 05:05:55;;;;;;;17.92;5.78;;;;;;;;;;4882662;29;20057;-86
2024/02/22 05:08:26;;;;;;;9.90;4.32;;;;;;;;;;4901725;29;20052;-87
2024/02/22 05:10:59;;;;;;;13.43;3.88;;;;;;;;;;4901209;29;20048;-86
2024/02/22 05:13:29;;;;;;;10.52;3.60;;;;;;;;;;4901003;29;20048;-86
2024/02/22 05:16:01;;;;;;;12.20;4.45;;;;;;;;;;4899941;29;20048;-86
2024/02/22 05:18:31;;;;;;;10.10;4.07;;;;;;;;;;4899451;29;20053;-86
2024/02/22 05:21:03;;;;;;;8.13;3.63;;;;;;;;;;4883920;29;20122;-86
2024/02/22 05:23:34;;;;;;;9.57;4.07;;;;;;;;;;4900919;29;20056;-85
2024/02/22 05:26:05;;;;;;;12.88;4.10;;;;;;;;;;4884450;29;20067;-85
2024/02/22 05:28:36;;;;;;;8.55;3.40;;;;;;;;;;4898956;29;20052;-86
2024/02/22 05:31:27;;;;;;;12.50;3.95;;;;;;;;;;4883284;29;20053;-85
2024/02/22 05:33:58;;;;;;;8.95;4.15;;;;;;;;;;4898724;29;20475;-86
2024/02/22 05:36:30;;;;;;;14.15;4.80;;;;;;;;;;4900954;29;20056;-85
2024/02/22 05:39:01;;;;;;;17.98;5.45;;;;;;;;;;4900781;29;20048;-87
2024/02/22 05:41:32;;;;;;;16.60;5.72;;;;;;;;;;4898659;29;20069;-87
2024/02/22 05:44:03;;;;;;;13.50;5.30;;;;;;;;;;4900210;29;20051;-86
2024/02/22 05:46:35;;;;;;;13.70;5.22;;;;;;;;;;4883724;29;20056;-86
2024/02/22 05:49:06;;;;;;;10.70;4.35;;;;;;;;;;4898432;29;20056;-86
2024/02/22 05:51:36;;;;;;;11.95;4.13;;;;;;;;;;4899863;29;20492;-87
2024/02/22 05:54:09;;;;;;;10.00;3.97;;;;;;;;;;4899161;29;20076;-87
2024/02/22 05:56:39;;;;;;;7.63;3.67;;;;;;;;;;4898826;29;20052;-85
2024/02/22 05:59:16;;;;;;;13.63;3.85;;;;;;;;;;4898723;29;20049;-86
2024/02/22 06:01:49;;;;;;;24.33;7.15;;;;;;;;;;4898728;29;20052;-86
2024/02/22 06:04:20;;;;;;;15.32;5.78;;;;;;;;;;4910288;29;20048;-87
2024/02/22 06:06:51;;;;;;;15.43;5.68;;;;;;;;;;4887724;29;20045;-87
2024/02/22 06:09:22;;;;;;;11.18;4.38;;;;;;;;;;4914998;29;20052;-87
2024/02/22 06:11:53;;;;;;;15.02;4.97;;;;;;;;;;4882851;29;20488;-87
2024/02/22 06:14:25;;;;;;;11.70;4.38;;;;;;;;;;4900031;29;20040;-87
2024/02/22 06:16:56;;;;;;;9.75;4.03;;;;;;;;;;4882128;29;20052;-87
2024/02/22 06:19:26;;;;;;;11.00;4.53;;;;;;;;;;4898879;29;20044;-86
2024/02/22 06:21:57;;;;;;;16.60;4.18;;;;;;;;;;4899848;29;20045;-87
2024/02/22 06:24:31;;;;;;;12.48;4.35;;;;;;;;;;4882921;29;20044;-87
2024/02/22 06:27:02;;;;;;;14.13;4.88;;;;;;;;;;4882972;29;20063;-86
2024/02/22 06:29:33;;;;;;;10.15;4.22;;;;;;;;;;4866794;29;20064;-86
2024/02/22 06:32:03;;;;;;;10.55;4.32;;;;;;;;;;4899019;29;20044;-86
2024/02/22 06:34:36;;;;;;;10.40;4.00;;;;;;;;;;4867109;29;20536;-88
2024/02/22 06:37:07;;;;;;;11.95;4.25;;;;;;;;;;4897997;29;20051;-86
2024/02/22 06:39:37;;;;;;;8.77;4.00;;;;;;;;;;4896886;29;20415;-87
2024/02/22 06:42:08;;;;;;;7.35;3.33;;;;;;;;;;4882699;29;20543;-86
2024/02/22 06:44:38;;;;;;;9.80;3.55;;;;;;;;;;4867413;29;20415;-86
2024/02/22 06:47:09;;;;;;;16.23;5.00;;;;;;;;;;4883201;29;20052;-86
2024/02/22 06:49:40;;;;;;;12.15;3.58;;;;;;;;;;4899182;29;20067;-86
2024/02/22 06:52:12;;;;;;;12.82;3.53;;;;;;;;;;4897791;29;20056;-86
2024/02/22 06:54:42;;;;;;;12.13;3.72;;;;;;;;;;4867754;29;20064;-86
2024/02/22 06:57:13;;;;;;;11.80;3.60;;;;;;;;;;4883352;29;20059;-85
2024/02/22 06:59:44;;;;;;;14.07;3.58;;;;;;;;;;4899278;29;20053;-85
2024/02/22 07:02:15;;;;;;;9.50;3.55;;;;;;;;;;4898681;29;20064;-85
2024/02/22 07:04:46;;;;;;;10.35;3.50;;;;;;;;;;4897149;29;20045;-85
2024/02/22 07:07:17;;;;;;;8.98;3.78;;;;;;;;;;4897942;29;20049;-86
2024/02/22 07:09:47;;;;;;;7.57;3.33;;;;;;;;;;4899462;29;20048;-85
2024/02/22 07:12:17;;;;;;;8.30;3.10;;;;;;;;;;4897965;29;20048;-85
2024/02/22 07:14:47;;;;;;;11.85;4.32;;;;;;;;;;4899081;29;20044;-86
2024/02/22 07:17:18;;;;;;;12.57;3.50;;;;;;;;;;4881213;29;20531;-85
2024/02/22 07:19:52;;;;;;;11.57;3.30;;;;;;;;;;4898724;29;20044;-86
2024/02/22 07:22:24;;;;;;;7.93;3.30;;;;;;;;;;4881808;29;20082;-84
2024/02/22 07:24:55;;;;;;;12.27;3.63;;;;;;;;;;4899241;29;20400;-85
2024/02/22 07:27:26;;;;;;;11.27;3.85;;;;;;;;;;4881343;29;20063;-84
2024/02/22 07:29:57;;;;;;;14.48;4.57;;;;;;;;;;4881688;29;20060;-85
2024/02/22 07:32:29;;;;;;;11.82;3.97;;;;;;;;;;4898699;29;20063;-85
2024/02/22 07:35:00;;;;;;;13.10;4.03;;;;;;;;;;4882299;29;20049;-84
2024/02/22 07:37:30;;;;;;;10.32;4.40;;;;;;;;;;4881282;29;20060;-85
2024/02/22 07:40:03;;;;;;;11.55;3.72;;;;;;;;;;4881653;29;20057;-85
2024/02/22 07:42:34;;;;;;;9.20;3.20;;;;;;;;;;4880884;29;20075;-85
2024/02/22 07:45:04;;;;;;;13.50;3.53;;;;;;;;;;4898536;29;20051;-86
2024/02/22 07:47:34;;;;;;;9.20;3.67;;;;;;;;;;4897110;29;20504;-85
2024/02/22 07:50:10;;;;;;;9.55;3.35;;;;;;;;;;4866734;29;20060;-85
2024/02/22 07:52:41;;;;;;;8.43;3.22;;;;;;;;;;4898079;29;20044;-85
2024/02/22 07:55:11;;;;;;;7.30;3.55;;;;;;;;;;4898117;29;20399;-85
2024/02/22 07:57:42;;;;;;;8.63;3.53;;;;;;;;;;4881375;29;20052;-84
2024/02/22 08:00:12;;;;;;;8.18;3.45;;;;;;;;;;4898280;29;20403;-85
2024/02/22 08:02:42;;;;;;;11.20;3.38;;;;;;;;;;4896837;29;20056;-85
2024/02/22 08:05:12;;;;;;;7.80;3.00;;;;;;;;;;4896648;29;20053;-85
2024/02/22 08:07:43;;;;;;;10.35;3.50;;;;;;;;;;4880935;29;20056;-85
2024/02/22 08:10:18;;;;;;;9.45;3.60;;;;;;;;;;4898203;29;20365;-85
2024/02/22 08:12:49;;;;;;;10.52;3.30;;;;;;;;;;4898244;29;20432;-85
2024/02/22 08:15:19;;;;;;;13.25;3.92;;;;;;;;;;4896479;29;20048;-85
2024/02/22 08:17:49;;;;;;;13.65;3.92;;;;;;;;;;4898197;29;20088;-85
2024/02/22 08:20:19;;;;;;;10.13;3.45;;;;;;;;;;4898231;29;20056;-85
2024/02/22 08:22:49;;;;;;;7.47;3.22;;;;;;;;;;4897918;29;20060;-85
2024/02/22 08:25:19;;;;;;;10.48;3.53;;;;;;;;;;4897406;29;20404;-85
2024/02/22 08:27:54;;;;;;;11.63;3.67;;;;;;;;;;4882000;29;20167;-85
2024/02/22 08:30:36;;;;;;;11.23;4.28;;;;;;;;;;4894465;29;20049;-87
2024/02/22 08:33:07;;;;;;;11.68;3.95;;;;;;;;;;4878687;29;20052;-86
2024/02/22 08:35:38;;;;;;;15.75;4.82;;;;;;;;;;4897480;29;20376;-88
2024/02/22 08:38:09;;;;;;;11.80;4.18;;;;;;;;;;4890852;29;20059;-90
2024/02/22 08:40:40;;;;;;;14.27;4.15;;;;;;;;;;4888230;29;20067;-86
2024/02/22 08:43:11;;;;;;;12.85;4.40;;;;;;;;;;4901786;29;20048;-86
2024/02/22 08:45:41;;;;;;;9.43;4.38;;;;;;;;;;4901618;29;20388;-86
2024/02/22 08:48:11;;;;;;;9.95;4.35;;;;;;;;;;4868935;29;20071;-87
2024/02/22 08:50:42;;;;;;;8.93;3.85;;;;;;;;;;4885066;29;20080;-86
2024/02/22 08:53:14;;;;;;;11.70;3.72;;;;;;;;;;4885558;29;20076;-85
2024/02/22 08:55:44;;;;;;;9.23;4.20;;;;;;;;;;4885553;29;20066;-85
2024/02/22 08:58:14;;;;;;;14.32;4.25;;;;;;;;;;4883817;29;20061;-85
2024/02/22 09:00:44;;;;;;;13.10;4.90;;;;;;;;;;4902238;29;20415;-85
2024/02/22 09:03:14;;;;;;;12.13;4.07;;;;;;;;;;4920302;29;20411;-85
2024/02/22 09:05:45;;;;;;;11.45;4.35;;;;;;;;;;4903335;29;20403;-85
2024/02/22 09:08:16;;;;;;;14.98;4.60;;;;;;;;;;4919993;29;20049;-85
2024/02/22 09:10:48;;;;;;;12.20;4.47;;;;;;;;;;4903661;29;20503;-86
2024/02/22 09:13:19;;;;;;;10.75;4.80;;;;;;;;;;4902117;29;20487;-85
2024/02/22 09:15:52;;;;;;;9.63;4.05;;;;;;;;;;4903399;29;20048;-85
2024/02/22 09:18:23;;;;;;;13.02;4.38;;;;;;;;;;4902356;29;20055;-85
2024/02/22 09:20:53;;;;;;;10.05;4.47;;;;;;;;;;4902627;29;20056;-86
2024/02/22 09:23:23;;;;;;;16.52;5.10;;;;;;;;;;4902965;29;20111;-85
2024/02/22 09:25:53;;;;;;;13.85;4.68;;;;;;;;;;4887689;29;20060;-86
2024/02/22 09:28:24;;;;;;;11.32;4.80;;;;;;;;;;4919651;29;20044;-86
2024/02/22 09:30:56;;;;;;;16.38;4.97;;;;;;;;;;4919650;29;20051;-86
2024/02/22 09:33:26;;;;;;;;;;;;;;;;;;4920145;29;20403;-86
2024/02/22 09:35:57;;;;;;;14.18;5.07;;;;;;;;;;4919466;29;20287;-85
2024/02/22 09:38:33;;;;;;;12.85;4.78;;;;;;;;;;4887478;29;20048;-85
2024/02/22 09:41:04;;;;;;;12.68;4.38;;;;;;;;;;4901759;29;20063;-86
2024/02/22 09:43:36;;;;;;;14.40;4.80;;;;;;;;;;4902156;29;20060;-85
2024/02/22 09:46:08;;;;;;;12.45;4.90;;;;;;;;;;4919256;29;20411;-86
2024/02/22 09:48:39;;;;;;;11.93;4.90;;;;;;;;;;4903541;29;20364;-85
2024/02/22 09:51:12;;;;;;;14.25;4.78;;;;;;;;;;4902350;29;20059;-85
2024/02/22 09:53:45;;;;;;;16.58;4.50;;;;;;;;;;4902877;29;20468;-86
2024/02/22 09:56:16;;;;;;;11.23;3.92;;;;;;;;;;4887443;29;20051;-85
2024/02/22 09:58:51;;;;;;;13.57;4.10;;;;;;;;;;4898613;29;20057;-85
2024/02/22 10:01:22;;;;;;;15.77;4.22;;;;;;;;;;4898040;29;20060;-86
2024/02/22 10:03:53;;;;;;;;;;;;;;;;;;4898875;29;20519;-85
2024/02/22 10:06:24;;;;;;;10.55;3.58;;;;;;;;;;4883041;29;19943;-86
2024/02/22 10:08:58;;;;;;;11.77;4.25;;;;;;;;;;4882698;29;20056;-85
2024/02/22 10:11:29;;;;;;;15.00;3.78;;;;;;;;;;4898226;29;20419;-85
2024/02/22 10:14:03;;;;;;;10.35;4.20;;;;;;;;;;4900166;29;20056;-86
2024/02/22 10:16:34;;;;;;;11.90;3.80;;;;;;;;;;4900224;29;20064;-86
2024/02/22 10:19:05;;;;;;;9.13;4.07;;;;;;;;;;4898476;29;20060;-86
2024/02/22 10:21:37;;;;;;;15.02;3.83;;;;;;;;;;4898878;29;20067;-86
2024/02/22 10:24:09;;;;;;;13.70;4.65;;;;;;;;;;4883231;29;20045;-86
2024/02/22 10:26:41;;;;;;;11.13;3.75;;;;;;;;;;4897689;29;20072;-86
2024/02/22 10:29:12;;;;;;;12.00;4.38;;;;;;;;;;4899897;29;20055;-88
2024/02/22 10:31:50;;;;;;;;;;;;;;;;;;4902046;29;20372;-87
2024/02/22 10:34:21;;;;;;;7.70;3.40;;;;;;;;;;4869982;29;19923;-88
2024/02/22 10:36:55;;;;;;;11.32;3.55;;;;;;;;;;4897142;29;20515;-88
2024/02/22 10:39:28;;;;;;;11.15;3.90;;;;;;;;;;4884523;29;20051;-86
2024/02/22 10:42:02;;;;;;;11.70;3.78;;;;;;;;;;4866417;29;20061;-88
2024/02/22 10:44:34;;;;;;;8.70;3.67;;;;;;;;;;4877391;29;20072;-89
2024/02/22 10:47:06;;;;;;;13.80;5.00;;;;;;;;;;4880271;29;20060;-89
2024/02/22 10:49:38;;;;;;;11.25;4.63;;;;;;;;;;4890253;29;20049;-88
2024/02/22 10:52:11;;;;;;;11.52;4.90;;;;;;;;;;4878088;29;20045;-87
2024/02/22 10:54:42;;;;;;;;;;;;;;;;;;4887942;29;20170;-88
2024/02/22 10:57:16;;;;;;;10.30;4.53;;;;;;;;;;4897743;29;19924;-88
2024/02/22 10:59:48;;;;;;;;;;;;;;;;;;4898017;29;20377;-88
2024/02/22 11:02:19;;;;;;;9.73;4.40;;;;;;;;;;4881485;29;19924;-88
2024/02/22 11:04:50;;;;;;;9.85;4.13;;;;;;;;;;4898547;29;20045;-91
2024/02/22 11:07:21;;;;;;;9.63;3.50;;;;;;;;;;4866111;29;20057;-89
2024/02/22 11:09:56;;;;;;;10.45;3.78;;;;;;;;;;4886336;29;20052;-88
2024/02/22 11:12:32;;;;;;;7.32;3.63;;;;;;;;;;4897134;29;20048;-88
2024/02/22 11:15:09;;;;;;;7.07;2.97;;;;;;;;;;4897499;29;20057;-88
2024/02/22 11:18:00;;;;;;;5.25;2.00;;;;;;;;;;4880127;29;20499;-88
2024/02/22 11:20:35;;;;;;;12.40;3.28;;;;;;;;;;4896585;29;20060;-85
2024/02/22 11:23:12;;;;;;;7.10;1.88;;;;;;;;;;4898311;29;20138;-88
2024/02/22 11:25:43;;;;;;;5.35;1.42;;;;;;;;;;4896433;29;20092;-88
2024/02/22 11:28:15;;;;;;;4.25;1.58;;;;;;;;;;4878290;29;20060;-87
2024/02/22 11:30:45;;;;;;;5.78;2.10;;;;;;;;;;4883323;29;20612;-86
2024/02/22 11:33:18;;;;;;;7.28;1.90;;;;;;;;;;4879188;29;20519;-86
2024/02/22 11:35:54;;;;;;;4.43;1.70;;;;;;;;;;4862905;29;20052;-85
2024/02/22 11:38:26;;;;;;;6.28;1.50;;;;;;;;;;4864062;29;20045;-87
2024/02/22 11:41:06;;;;;;;;;;;;;;;;;;4846913;29;20060;-88
2024/02/22 11:43:38;;;;;;;2.97;1.40;;;;;;;;;;4873445;29;19924;-85
2024/02/22 11:46:11;;;;;;;2.70;1.48;;;;;;;;;;4862623;29;20053;-91
2024/02/22 11:48:44;;;;;;;3.20;1.30;;;;;;;;;;4866473;29;20049;-90
2024/02/22 11:51:15;;;;;;;2.55;1.20;;;;;;;;;;4848397;29;20057;-88
2024/02/22 11:53:56;;;;;;;1.88;0.98;;;;;;;;;;4847974;29;20519;-89
2024/02/22 11:56:27;;;;;;;4.20;1.30;;;;;;;;;;4860469;29;20753;-90
2024/02/22 11:58:58;;;;;;;5.70;1.27;;;;;;;;;;4874922;29;20048;-87
2024/02/22 12:01:33;;;;;;;1.95;0.98;;;;;;;;;;4875258;29;20052;-93
2024/02/22 12:04:06;;;;;;;3.08;1.20;;;;;;;;;;4919402;29;20048;-88
2024/02/22 12:06:41;;;;;;;3.03;1.08;;;;;;;;;;4893058;29;20044;-87
2024/02/22 12:09:15;;;;;;;2.45;0.90;;;;;;;;;;4904980;29;20533;-90
2024/02/22 12:11:47;;;;;;;1.75;0.98;;;;;;;;;;4926405;29;20051;-88
2024/02/22 12:14:20;;;;;;;3.35;1.10;;;;;;;;;;4907036;29;20048;-88
2024/02/22 12:16:58;;;;;;;1.40;1.02;;;;;;;;;;4914301;29;20280;-89
2024/02/22 12:19:30;;;;;;;2.95;0.93;;;;;;;;;;4904700;29;20052;-90
2024/02/22 12:22:03;;;;;;;;;;;;;;;;;;4899059;29;20056;-86
2024/02/22 12:24:37;;;;;;;2.13;1.00;;;;;;;;;;4902815;29;19931;-89
2024/02/22 12:27:15;;;;;;;2.65;0.90;;;;;;;;;;4916919;29;20063;-89
2024/02/22 12:29:50;;;;;;;1.35;0.90;;;;;;;;;;4908736;29;20052;-91
2024/02/22 12:32:23;;;;;;;2.90;1.00;;;;;;;;;;4904926;29;20553;-88
2024/02/22 12:34:57;;;;;;;2.22;1.00;;;;;;;;;;4907647;29;20055;-87
2024/02/22 12:37:29;;;;;;;1.88;1.00;;;;;;;;;;4903885;29;20048;-86
2024/02/22 12:39:59;;;;;;;1.38;0.90;;;;;;;;;;4926884;29;20047;-87
2024/02/22 12:42:29;;;;;;;1.98;1.02;;;;;;;;;;4925341;29;20096;-86
2024/02/22 12:45:00;;;;;;;3.13;0.95;;;;;;;;;;4880944;29;20052;-87
2024/02/22 12:47:34;;;;;;;9.65;4.82;;;;;;;;;;4921601;29;20410;-87
2024/02/22 12:50:08;;;;;;;1.85;0.85;;;;;;;;;;4906755;29;20423;-90
2024/02/22 12:52:39;;;;;;;1.52;0.90;;;;;;;;;;4909246;29;20514;-85
2024/02/22 12:55:09;;;;;;;2.45;1.00;;;;;;;;;;4905419;29;20430;-87
2024/02/22 12:57:38;;;;;;;1.63;0.98;;;;;;;;;;4903384;29;20048;-86
2024/02/22 13:00:09;;;;;;;2.40;0.80;;;;;;;;;;4902340;29;20052;-86
2024/02/22 13:02:42;;;;;;;1.15;0.90;;;;;;;;;;4921061;29;20434;-85
2024/02/22 13:05:13;;;;;;;2.42;0.80;;;;;;;;;;4899162;29;20428;-86
2024/02/22 13:07:43;;;;;;;2.58;0.90;;;;;;;;;;4920227;29;20055;-85
2024/02/22 13:10:17;;;;;;;2.83;1.10;;;;;;;;;;4896871;29;20056;-86
2024/02/22 13:12:54;;;;;;;2.55;1.35;;;;;;;;;;4898872;29;20048;-86
2024/02/22 13:15:30;;;;;;;2.25;1.05;;;;;;;;;;4914747;29;20107;-87
2024/02/22 13:18:04;;;;;;;2.15;0.80;;;;;;;;;;4898460;29;20515;-87
2024/02/22 13:20:36;;;;;;;3.35;0.88;;;;;;;;;;4891255;29;20045;-85
2024/02/22 13:23:07;;;;;;;1.00;0.75;;;;;;;;;;4904597;29;20059;-85
2024/02/22 13:25:38;;;;;;;2.72;0.80;;;;;;;;;;4888535;29;20070;-85
2024/02/22 13:28:11;;;;;;;1.55;0.80;;;;;;;;;;4935346;29;20047;-85
2024/02/22 13:30:42;;;;;;;2.95;0.88;;;;;;;;;;4919679;29;20052;-85
2024/02/22 13:33:12;;;;;;;1.58;0.85;;;;;;;;;;4936904;29;20047;-87
2024/02/22 13:35:42;;;;;;;1.90;0.85;;;;;;;;;;4937698;29;20052;-87
2024/02/22 13:38:14;;;;;;;3.08;0.93;;;;;;;;;;4919396;29;20526;-85
2024/02/22 13:40:45;;;;;;;2.92;1.00;;;;;;;;;;4915205;29;20044;-86
2024/02/22 13:43:17;;;;;;;2.13;0.90;;;;;;;;;;4900306;29;20059;-86
2024/02/22 13:45:48;;;;;;;1.75;0.93;;;;;;;;;;4890936;29;20383;-85
2024/02/22 13:48:18;;;;;;;2.75;0.80;;;;;;;;;;4903829;29;20058;-86
2024/02/22 13:50:50;;;;;;;4.25;1.15;;;;;;;;;;4902479;29;20047;-86
2024/02/22 13:53:22;;;;;;;2.30;0.90;;;;;;;;;;4930196;29;20051;-87
2024/02/22 13:55:54;;;;;;;5.65;1.00;;;;;;;;;;4924889;29;20048;-87
2024/02/22 13:58:28;;;;;;;2.92;0.88;;;;;;;;;;4911230;29;20047;-87
2024/02/22 14:00:59;;;;;;;3.35;0.70;;;;;;;;;;4922306;29;20056;-85
2024/02/22 14:03:33;;;;;;;2.53;0.80;;;;;;;;;;4916488;29;20045;-87
2024/02/22 14:06:06;;;;;;;2.20;1.30;;;;;;;;;;4899451;29;20058;-87
2024/02/22 14:08:38;;;;;;;4.88;0.90;;;;;;;;;;4918795;29;20529;-85
2024/02/22 14:11:09;;;;;;;1.10;0.88;;;;;;;;;;4923123;29;20044;-87
2024/02/22 14:13:41;;;;;;;1.60;0.93;;;;;;;;;;4919515;29;20063;-88
2024/02/22 14:16:11;;;;;;;2.88;1.10;;;;;;;;;;4902801;29;20403;-86
2024/02/22 14:18:42;;;;;;;1.88;0.70;;;;;;;;;;4919064;29;20040;-88
2024/02/22 14:21:13;;;;;;;2.97;0.80;;;;;;;;;;4918627;29;20047;-87
2024/02/22 14:23:45;;;;;;;2.03;1.13;;;;;;;;;;4902106;29;20060;-85
2024/02/22 14:26:19;;;;;;;3.13;1.08;;;;;;;;;;4923528;29;20403;-85
2024/02/22 14:28:51;;;;;;;2.30;0.85;;;;;;;;;;4902142;29;20507;-84
2024/02/22 14:31:23;;;;;;;1.48;0.90;;;;;;;;;;4917915;29;20052;-88
2024/02/22 14:33:55;;;;;;;3.05;0.93;;;;;;;;;;4923093;29;20058;-87
2024/02/22 14:36:26;;;;;;;0.75;0.55;;;;;;;;;;4936754;29;20036;-86
2024/02/22 14:38:59;;;;;;;2.85;0.82;;;;;;;;;;4920702;29;20056;-87
2024/02/22 14:41:29;;;;;;;2.38;0.93;;;;;;;;;;4919759;29;20418;-87
2024/02/22 14:43:59;;;;;;;1.27;0.73;;;;;;;;;;4903805;29;20051;-87
2024/02/22 14:46:29;;;;;;;2.03;1.00;;;;;;;;;;4936605;29;20418;-89
2024/02/22 14:48:59;;;;;;;4.55;1.10;;;;;;;;;;4903885;29;20051;-90
2024/02/22 14:51:29;;;;;;;3.83;2.40;;;;;;;;;;4919115;29;20063;-89
2024/02/22 14:53:59;;;;;;;1.73;0.93;;;;;;;;;;4919781;29;20044;-86
2024/02/22 14:56:29;;;;;;;4.00;1.27;;;;;;;;;;4918935;29;20058;-88
2024/02/22 14:59:00;;;;;;;2.63;0.90;;;;;;;;;;4903459;29;20051;-87
2024/02/22 15:01:31;;;;;;;2.22;0.80;;;;;;;;;;4922386;29;20504;-86
2024/02/22 15:04:03;;;;;;;1.85;0.88;;;;;;;;;;4909334;29;20044;-86
2024/02/22 15:06:34;;;;;;;1.95;0.80;;;;;;;;;;4888449;29;20057;-85
2024/02/22 15:09:41;;;;;;;4.40;0.80;;;;;;;;;;4924868;29;20052;-87
2024/02/22 15:12:12;;;;;;;1.98;0.80;;;;;;;;;;4905478;29;20052;-86